sensor_id;sensor_type;location;lat;lon;timestamp;temperature;humidity
17385;DHT22;8810;48.680;8.894;2023-03-01T00:02:21;-2.80;99.90
17385;DHT22;8810;48.680;8.894;2023-03-01T00:04:50;-2.80;99.90
17385;DHT22;8810;48.680;8.894;2023-03-01T00:07:17;-2.90;99.90
17385;DHT22;8810;48.680;8.894;2023-03-01T00:09:44;-2.90;99.90
17385;DHT22;8810;48.680;8.894;2023-03-01T00:12:11;-3.00;99.90
17385;DHT22;8810;48.680;8.894;2023-03-01T00:14:38;-2.90;99.90
17385;DHT22;8810;48.680;8.894;2023-03-01T00:17:05;-2.90;99.90
17385;DHT22;8810;48.680;8.894;2023-03-01T00:19:32;-2.90;99.90
17385;DHT22;8810;48.680;8.894;2023-03-01T00:22:00;-2.90;99.90
17385;DHT22;8810;48.680;8.894;2023-03-01T00:24:27;-2.90;99.90
17385;DHT22;8810;48.680;8.894;2023-03-01T00:26:54;-2.90;99.90
17385;DHT22;8810;48.680;8.894;2023-03-01T00:29:22;-2.90;99.90
17385;DHT22;8810;48.680;8.894;2023-03-01T00:31:49;-2.90;99.90
17385;DHT22;8810;48.680;8.894;2023-03-01T00:34:16;-2.90;99.90
17385;DHT22;8810;48.680;8.894;2023-03-01T00:36:43;-2.90;99.90
17385;DHT22;8810;48.680;8.894;2023-03-01T00:39:13;-3.00;99.90
17385;DHT22;8810;48.680;8.894;2023-03-01T00:41:40;-3.00;99.90
17385;DHT22;8810;48.680;8.894;2023-03-01T00:44:08;-3.10;99.90
17385;DHT22;8810;48.680;8.894;2023-03-01T00:46:34;-3.10;99.90
17385;DHT22;8810;48.680;8.894;2023-03-01T00:49:01;-3.10;99.90
17385;DHT22;8810;48.680;8.894;2023-03-01T00:51:30;-3.10;99.90
17385;DHT22;8810;48.680;8.894;2023-03-01T00:54:00;-3.10;99.90
17385;DHT22;8810;48.680;8.894;2023-03-01T00:56:29;-3.20;99.90
17385;DHT22;8810;48.680;8.894;2023-03-01T00:58:56;-3.10;99.90
17385;DHT22;8810;48.680;8.894;2023-03-01T01:01:24;-3.20;99.90
17385;DHT22;8810;48.680;8.894;2023-03-01T01:03:54;-3.20;99.90
17385;DHT22;8810;48.680;8.894;2023-03-01T01:06:22;-3.20;99.90
17385;DHT22;8810;48.680;8.894;2023-03-01T01:08:50;-3.20;99.90
17385;DHT22;8810;48.680;8.894;2023-03-01T01:11:17;-3.30;99.90
17385;DHT22;8810;48.680;8.894;2023-03-01T01:13:46;-3.30;99.90
17385;DHT22;8810;48.680;8.894;2023-03-01T01:16:14;-3.30;99.90
17385;DHT22;8810;48.680;8.894;2023-03-01T01:18:41;-3.30;99.90
17385;DHT22;8810;48.680;8.894;2023-03-01T01:21:09;-3.30;99.90
17385;DHT22;8810;48.680;8.894;2023-03-01T01:23:37;-3.30;99.90
17385;DHT22;8810;48.680;8.894;2023-03-01T01:26:06;-3.30;99.90
17385;DHT22;8810;48.680;8.894;2023-03-01T01:28:33;-3.30;99.90
17385;DHT22;8810;48.680;8.894;2023-03-01T01:31:01;-3.30;99.90
17385;DHT22;8810;48.680;8.894;2023-03-01T01:33:28;-3.30;99.90
17385;DHT22;8810;48.680;8.894;2023-03-01T01:35:56;-3.30;99.90
17385;DHT22;8810;48.680;8.894;2023-03-01T01:38:22;-3.30;99.90
17385;DHT22;8810;48.680;8.894;2023-03-01T01:40:50;-3.40;99.90
17385;DHT22;8810;48.680;8.894;2023-03-01T01:43:22;-3.40;99.90
17385;DHT22;8810;48.680;8.894;2023-03-01T01:45:49;-3.50;99.90
17385;DHT22;8810;48.680;8.894;2023-03-01T01:48:20;-3.50;99.90
17385;DHT22;8810;48.680;8.894;2023-03-01T01:50:52;-3.50;99.90
17385;DHT22;8810;48.680;8.894;2023-03-01T01:53:22;-3.50;99.90
17385;DHT22;8810;48.680;8.894;2023-03-01T01:55:53;-3.60;99.90
17385;DHT22;8810;48.680;8.894;2023-03-01T01:58:24;-3.60;99.90
17385;DHT22;8810;48.680;8.894;2023-03-01T02:00:53;-3.70;99.90
17385;DHT22;8810;48.680;8.894;2023-03-01T02:03:25;-3.80;99.90
17385;DHT22;8810;48.680;8.894;2023-03-01T02:05:58;-3.80;99.90
17385;DHT22;8810;48.680;8.894;2023-03-01T02:08:29;-3.90;99.90
17385;DHT22;8810;48.680;8.894;2023-03-01T02:10:57;-3.90;99.90
17385;DHT22;8810;48.680;8.894;2023-03-01T02:13:25;-3.90;99.90
17385;DHT22;8810;48.680;8.894;2023-03-01T02:15:52;-3.90;99.90
17385;DHT22;8810;48.680;8.894;2023-03-01T02:18:22;-3.90;99.90
17385;DHT22;8810;48.680;8.894;2023-03-01T02:21:05;-3.90;99.90
17385;DHT22;8810;48.680;8.894;2023-03-01T02:23:36;-3.90;99.90
17385;DHT22;8810;48.680;8.894;2023-03-01T02:26:06;-3.90;99.90
17385;DHT22;8810;48.680;8.894;2023-03-01T02:28:36;-3.90;99.90
17385;DHT22;8810;48.680;8.894;2023-03-01T02:31:05;-3.90;99.90
17385;DHT22;8810;48.680;8.894;2023-03-01T02:33:51;-3.90;99.90
17385;DHT22;8810;48.680;8.894;2023-03-01T02:36:20;-3.90;99.90
17385;DHT22;8810;48.680;8.894;2023-03-01T02:38:50;-3.90;99.90
17385;DHT22;8810;48.680;8.894;2023-03-01T02:41:19;-3.90;99.90
17385;DHT22;8810;48.680;8.894;2023-03-01T02:43:48;-3.80;99.90
17385;DHT22;8810;48.680;8.894;2023-03-01T02:46:17;-3.80;99.90
17385;DHT22;8810;48.680;8.894;2023-03-01T02:48:47;-3.70;99.90
17385;DHT22;8810;48.680;8.894;2023-03-01T02:51:42;-3.70;99.90
17385;DHT22;8810;48.680;8.894;2023-03-01T02:54:18;-3.70;99.90
17385;DHT22;8810;48.680;8.894;2023-03-01T02:56:47;-3.60;99.90
17385;DHT22;8810;48.680;8.894;2023-03-01T02:59:16;-3.50;99.90
17385;DHT22;8810;48.680;8.894;2023-03-01T03:01:44;-3.50;99.90
17385;DHT22;8810;48.680;8.894;2023-03-01T03:04:14;-3.50;99.90
17385;DHT22;8810;48.680;8.894;2023-03-01T03:06:43;-3.40;99.90
17385;DHT22;8810;48.680;8.894;2023-03-01T03:09:11;-3.40;99.90
17385;DHT22;8810;48.680;8.894;2023-03-01T03:11:38;-3.30;99.90
17385;DHT22;8810;48.680;8.894;2023-03-01T03:14:06;-3.20;99.90
17385;DHT22;8810;48.680;8.894;2023-03-01T03:16:40;-3.20;99.90
17385;DHT22;8810;48.680;8.894;2023-03-01T03:19:07;-3.20;99.90
17385;DHT22;8810;48.680;8.894;2023-03-01T03:21:34;-3.20;99.90
17385;DHT22;8810;48.680;8.894;2023-03-01T03:24:01;-3.20;99.90
17385;DHT22;8810;48.680;8.894;2023-03-01T03:26:28;-3.20;99.90
17385;DHT22;8810;48.680;8.894;2023-03-01T03:28:55;-3.10;99.90
17385;DHT22;8810;48.680;8.894;2023-03-01T03:31:22;-3.10;99.90
17385;DHT22;8810;48.680;8.894;2023-03-01T03:33:50;-3.10;99.90
17385;DHT22;8810;48.680;8.894;2023-03-01T03:36:18;-3.00;99.90
17385;DHT22;8810;48.680;8.894;2023-03-01T03:38:45;-2.90;99.90
17385;DHT22;8810;48.680;8.894;2023-03-01T03:41:12;-2.90;99.90
17385;DHT22;8810;48.680;8.894;2023-03-01T03:43:40;-2.90;99.90
17385;DHT22;8810;48.680;8.894;2023-03-01T03:46:09;-2.90;99.90
17385;DHT22;8810;48.680;8.894;2023-03-01T03:48:38;-2.80;99.90
17385;DHT22;8810;48.680;8.894;2023-03-01T03:51:07;-2.70;99.90
17385;DHT22;8810;48.680;8.894;2023-03-01T03:53:36;-2.70;99.90
17385;DHT22;8810;48.680;8.894;2023-03-01T03:56:03;-2.70;99.90
17385;DHT22;8810;48.680;8.894;2023-03-01T03:58:30;-2.70;99.90
17385;DHT22;8810;48.680;8.894;2023-03-01T04:00:57;-2.60;99.90
17385;DHT22;8810;48.680;8.894;2023-03-01T04:03:27;-2.60;99.90
17385;DHT22;8810;48.680;8.894;2023-03-01T04:05:54;-2.50;99.90
17385;DHT22;8810;48.680;8.894;2023-03-01T04:08:23;-2.40;99.90
17385;DHT22;8810;48.680;8.894;2023-03-01T04:10:51;-2.40;99.90
17385;DHT22;8810;48.680;8.894;2023-03-01T04:13:21;-2.40;99.90
17385;DHT22;8810;48.680;8.894;2023-03-01T04:15:49;-2.40;99.90
17385;DHT22;8810;48.680;8.894;2023-03-01T04:18:17;-2.40;99.90
17385;DHT22;8810;48.680;8.894;2023-03-01T04:20:44;-2.30;99.90
17385;DHT22;8810;48.680;8.894;2023-03-01T04:23:13;-2.20;99.90
17385;DHT22;8810;48.680;8.894;2023-03-01T04:25:46;-2.20;99.90
17385;DHT22;8810;48.680;8.894;2023-03-01T04:28:15;-2.20;99.90
17385;DHT22;8810;48.680;8.894;2023-03-01T04:30:42;-2.20;99.90
17385;DHT22;8810;48.680;8.894;2023-03-01T04:33:10;-2.10;99.90
17385;DHT22;8810;48.680;8.894;2023-03-01T04:35:37;-2.10;99.90
17385;DHT22;8810;48.680;8.894;2023-03-01T04:38:06;-2.10;99.90
17385;DHT22;8810;48.680;8.894;2023-03-01T04:40:33;-2.10;99.90
17385;DHT22;8810;48.680;8.894;2023-03-01T04:43:02;-2.10;99.90
17385;DHT22;8810;48.680;8.894;2023-03-01T04:45:29;-2.00;99.90
17385;DHT22;8810;48.680;8.894;2023-03-01T04:47:56;-2.00;99.90
17385;DHT22;8810;48.680;8.894;2023-03-01T04:50:24;-2.00;99.90
17385;DHT22;8810;48.680;8.894;2023-03-01T04:52:51;-2.00;99.90
17385;DHT22;8810;48.680;8.894;2023-03-01T04:55:18;-2.00;99.90
17385;DHT22;8810;48.680;8.894;2023-03-01T04:57:45;-2.00;99.90
17385;DHT22;8810;48.680;8.894;2023-03-01T05:00:14;-1.90;99.90
17385;DHT22;8810;48.680;8.894;2023-03-01T05:02:48;-1.90;99.90
17385;DHT22;8810;48.680;8.894;2023-03-01T05:05:19;-1.90;99.90
17385;DHT22;8810;48.680;8.894;2023-03-01T05:07:47;-1.80;99.90
17385;DHT22;8810;48.680;8.894;2023-03-01T05:10:14;-1.80;99.90
17385;DHT22;8810;48.680;8.894;2023-03-01T05:12:42;-1.80;99.90
17385;DHT22;8810;48.680;8.894;2023-03-01T05:15:09;-1.80;99.90
17385;DHT22;8810;48.680;8.894;2023-03-01T05:17:37;-1.80;99.90
17385;DHT22;8810;48.680;8.894;2023-03-01T05:20:05;-1.70;99.90
17385;DHT22;8810;48.680;8.894;2023-03-01T05:22:34;-1.70;99.90
17385;DHT22;8810;48.680;8.894;2023-03-01T05:25:01;-1.60;99.90
17385;DHT22;8810;48.680;8.894;2023-03-01T05:27:28;-1.60;99.90
17385;DHT22;8810;48.680;8.894;2023-03-01T05:29:55;-1.60;99.90
17385;DHT22;8810;48.680;8.894;2023-03-01T05:32:22;-1.50;99.90
17385;DHT22;8810;48.680;8.894;2023-03-01T05:34:50;-1.50;99.90
17385;DHT22;8810;48.680;8.894;2023-03-01T05:37:17;-1.40;99.90
17385;DHT22;8810;48.680;8.894;2023-03-01T05:39:45;-1.40;99.90
17385;DHT22;8810;48.680;8.894;2023-03-01T05:42:11;-1.40;99.90
17385;DHT22;8810;48.680;8.894;2023-03-01T05:44:38;-1.40;99.90
17385;DHT22;8810;48.680;8.894;2023-03-01T05:47:05;-1.40;99.90
17385;DHT22;8810;48.680;8.894;2023-03-01T05:49:32;-1.30;99.90
17385;DHT22;8810;48.680;8.894;2023-03-01T05:52:01;-1.40;99.90
17385;DHT22;8810;48.680;8.894;2023-03-01T05:54:28;-1.30;99.90
17385;DHT22;8810;48.680;8.894;2023-03-01T05:56:55;-1.30;99.90
17385;DHT22;8810;48.680;8.894;2023-03-01T05:59:22;-1.30;99.90
17385;DHT22;8810;48.680;8.894;2023-03-01T06:01:49;-1.30;99.90
17385;DHT22;8810;48.680;8.894;2023-03-01T06:04:16;-1.30;99.90
17385;DHT22;8810;48.680;8.894;2023-03-01T06:06:43;-1.30;99.90
17385;DHT22;8810;48.680;8.894;2023-03-01T06:09:11;-1.20;99.90
17385;DHT22;8810;48.680;8.894;2023-03-01T06:11:38;-1.20;99.90
17385;DHT22;8810;48.680;8.894;2023-03-01T06:14:06;-1.20;99.90
17385;DHT22;8810;48.680;8.894;2023-03-01T06:16:33;-1.20;99.90
17385;DHT22;8810;48.680;8.894;2023-03-01T06:19:00;-1.10;99.90
17385;DHT22;8810;48.680;8.894;2023-03-01T06:21:27;-1.10;99.90
17385;DHT22;8810;48.680;8.894;2023-03-01T06:23:57;-1.10;99.90
17385;DHT22;8810;48.680;8.894;2023-03-01T06:26:25;-1.10;99.90
17385;DHT22;8810;48.680;8.894;2023-03-01T06:28:52;-1.10;99.90
17385;DHT22;8810;48.680;8.894;2023-03-01T06:31:19;-1.00;99.90
17385;DHT22;8810;48.680;8.894;2023-03-01T06:33:45;-1.00;99.90
17385;DHT22;8810;48.680;8.894;2023-03-01T06:36:12;-1.00;99.90
17385;DHT22;8810;48.680;8.894;2023-03-01T06:38:39;-1.00;99.90
17385;DHT22;8810;48.680;8.894;2023-03-01T06:41:07;-0.90;99.90
17385;DHT22;8810;48.680;8.894;2023-03-01T06:43:35;-1.00;99.90
17385;DHT22;8810;48.680;8.894;2023-03-01T06:46:04;-0.90;99.90
17385;DHT22;8810;48.680;8.894;2023-03-01T06:48:32;-0.90;99.90
17385;DHT22;8810;48.680;8.894;2023-03-01T06:50:59;-0.90;99.90
17385;DHT22;8810;48.680;8.894;2023-03-01T06:53:26;-0.90;99.90
17385;DHT22;8810;48.680;8.894;2023-03-01T06:55:54;-0.80;99.90
17385;DHT22;8810;48.680;8.894;2023-03-01T06:58:21;-0.80;99.90
17385;DHT22;8810;48.680;8.894;2023-03-01T07:00:49;-0.80;99.90
17385;DHT22;8810;48.680;8.894;2023-03-01T07:03:16;-0.80;99.90
17385;DHT22;8810;48.680;8.894;2023-03-01T07:05:43;-0.70;99.90
17385;DHT22;8810;48.680;8.894;2023-03-01T07:08:11;-0.60;99.90
17385;DHT22;8810;48.680;8.894;2023-03-01T07:10:37;-0.60;99.90
17385;DHT22;8810;48.680;8.894;2023-03-01T07:13:04;-0.60;99.90
17385;DHT22;8810;48.680;8.894;2023-03-01T07:15:32;-0.40;99.90
17385;DHT22;8810;48.680;8.894;2023-03-01T07:18:01;-0.20;99.90
17385;DHT22;8810;48.680;8.894;2023-03-01T07:20:28;0.00;99.90
17385;DHT22;8810;48.680;8.894;2023-03-01T07:22:55;0.30;99.90
17385;DHT22;8810;48.680;8.894;2023-03-01T07:25:24;0.60;99.90
17385;DHT22;8810;48.680;8.894;2023-03-01T07:27:51;0.80;99.90
17385;DHT22;8810;48.680;8.894;2023-03-01T07:30:19;1.10;99.90
17385;DHT22;8810;48.680;8.894;2023-03-01T07:32:46;1.30;99.90
17385;DHT22;8810;48.680;8.894;2023-03-01T07:35:14;1.50;99.90
17385;DHT22;8810;48.680;8.894;2023-03-01T07:37:41;1.80;99.90
17385;DHT22;8810;48.680;8.894;2023-03-01T07:40:09;1.90;99.90
17385;DHT22;8810;48.680;8.894;2023-03-01T07:42:36;2.20;99.90
17385;DHT22;8810;48.680;8.894;2023-03-01T07:45:04;2.30;99.90
17385;DHT22;8810;48.680;8.894;2023-03-01T07:47:32;2.50;99.90
17385;DHT22;8810;48.680;8.894;2023-03-01T07:49:58;2.60;99.90
17385;DHT22;8810;48.680;8.894;2023-03-01T07:52:28;2.80;99.90
17385;DHT22;8810;48.680;8.894;2023-03-01T07:54:55;2.90;99.90
17385;DHT22;8810;48.680;8.894;2023-03-01T07:57:22;3.10;99.90
17385;DHT22;8810;48.680;8.894;2023-03-01T07:59:49;3.20;99.90
17385;DHT22;8810;48.680;8.894;2023-03-01T08:02:15;3.30;99.90
17385;DHT22;8810;48.680;8.894;2023-03-01T08:04:42;3.50;99.90
17385;DHT22;8810;48.680;8.894;2023-03-01T08:07:09;3.60;99.90
17385;DHT22;8810;48.680;8.894;2023-03-01T08:09:37;3.70;99.90
17385;DHT22;8810;48.680;8.894;2023-03-01T08:12:05;3.80;99.90
17385;DHT22;8810;48.680;8.894;2023-03-01T08:14:32;3.90;99.90
17385;DHT22;8810;48.680;8.894;2023-03-01T08:16:59;4.00;99.90
17385;DHT22;8810;48.680;8.894;2023-03-01T08:19:28;4.10;99.90
17385;DHT22;8810;48.680;8.894;2023-03-01T08:21:55;4.20;99.90
17385;DHT22;8810;48.680;8.894;2023-03-01T08:24:24;4.30;99.90
17385;DHT22;8810;48.680;8.894;2023-03-01T08:26:52;4.40;99.90
17385;DHT22;8810;48.680;8.894;2023-03-01T08:29:19;4.60;99.90
17385;DHT22;8810;48.680;8.894;2023-03-01T08:31:46;4.70;99.90
17385;DHT22;8810;48.680;8.894;2023-03-01T08:34:15;4.80;99.90
17385;DHT22;8810;48.680;8.894;2023-03-01T08:36:44;4.90;99.90
17385;DHT22;8810;48.680;8.894;2023-03-01T08:39:13;5.00;99.90
17385;DHT22;8810;48.680;8.894;2023-03-01T08:41:41;5.10;99.90
17385;DHT22;8810;48.680;8.894;2023-03-01T08:44:11;5.20;99.90
17385;DHT22;8810;48.680;8.894;2023-03-01T08:46:40;5.40;99.90
17385;DHT22;8810;48.680;8.894;2023-03-01T08:49:07;5.50;99.90
17385;DHT22;8810;48.680;8.894;2023-03-01T08:51:35;5.50;99.90
17385;DHT22;8810;48.680;8.894;2023-03-01T08:54:03;5.60;99.90
17385;DHT22;8810;48.680;8.894;2023-03-01T08:56:30;5.80;99.90
17385;DHT22;8810;48.680;8.894;2023-03-01T08:58:57;5.90;99.90
17385;DHT22;8810;48.680;8.894;2023-03-01T09:01:25;6.10;99.90
17385;DHT22;8810;48.680;8.894;2023-03-01T09:03:53;6.20;99.90
17385;DHT22;8810;48.680;8.894;2023-03-01T09:06:20;6.20;99.90
17385;DHT22;8810;48.680;8.894;2023-03-01T09:08:49;6.30;99.90
17385;DHT22;8810;48.680;8.894;2023-03-01T09:11:18;6.30;99.90
17385;DHT22;8810;48.680;8.894;2023-03-01T09:13:46;6.40;99.90
17385;DHT22;8810;48.680;8.894;2023-03-01T09:16:15;6.50;99.90
17385;DHT22;8810;48.680;8.894;2023-03-01T09:18:44;6.60;99.90
17385;DHT22;8810;48.680;8.894;2023-03-01T09:21:13;6.80;99.90
17385;DHT22;8810;48.680;8.894;2023-03-01T09:23:41;6.80;99.90
17385;DHT22;8810;48.680;8.894;2023-03-01T09:26:11;7.00;99.90
17385;DHT22;8810;48.680;8.894;2023-03-01T09:28:39;7.10;99.90
17385;DHT22;8810;48.680;8.894;2023-03-01T09:31:06;7.20;99.90
17385;DHT22;8810;48.680;8.894;2023-03-01T09:33:34;7.30;99.90
17385;DHT22;8810;48.680;8.894;2023-03-01T09:36:04;7.30;99.90
17385;DHT22;8810;48.680;8.894;2023-03-01T09:38:33;7.40;99.90
17385;DHT22;8810;48.680;8.894;2023-03-01T09:41:00;7.60;99.90
17385;DHT22;8810;48.680;8.894;2023-03-01T09:43:34;7.70;99.90
17385;DHT22;8810;48.680;8.894;2023-03-01T09:46:06;7.80;99.90
17385;DHT22;8810;48.680;8.894;2023-03-01T09:48:41;7.70;99.90
17385;DHT22;8810;48.680;8.894;2023-03-01T09:51:17;7.60;99.90
17385;DHT22;8810;48.680;8.894;2023-03-01T09:53:44;7.60;99.90
17385;DHT22;8810;48.680;8.894;2023-03-01T09:56:17;7.50;99.90
17385;DHT22;8810;48.680;8.894;2023-03-01T09:58:51;7.30;99.90
17385;DHT22;8810;48.680;8.894;2023-03-01T10:01:29;7.10;99.90
17385;DHT22;8810;48.680;8.894;2023-03-01T10:04:19;7.00;99.90
17385;DHT22;8810;48.680;8.894;2023-03-01T10:07:02;7.10;99.90
17385;DHT22;8810;48.680;8.894;2023-03-01T10:09:34;7.30;99.90
17385;DHT22;8810;48.680;8.894;2023-03-01T10:12:02;7.40;99.90
17385;DHT22;8810;48.680;8.894;2023-03-01T10:14:35;7.50;99.90
17385;DHT22;8810;48.680;8.894;2023-03-01T10:17:07;7.60;99.90
17385;DHT22;8810;48.680;8.894;2023-03-01T10:19:39;7.70;99.90
17385;DHT22;8810;48.680;8.894;2023-03-01T10:22:14;7.80;99.90
17385;DHT22;8810;48.680;8.894;2023-03-01T10:24:42;7.80;99.90
17385;DHT22;8810;48.680;8.894;2023-03-01T10:27:16;8.10;99.90
17385;DHT22;8810;48.680;8.894;2023-03-01T10:29:48;8.30;99.90
17385;DHT22;8810;48.680;8.894;2023-03-01T10:32:18;8.40;99.70
17385;DHT22;8810;48.680;8.894;2023-03-01T10:34:47;8.60;99.50
17385;DHT22;8810;48.680;8.894;2023-03-01T10:37:17;8.80;99.30
17385;DHT22;8810;48.680;8.894;2023-03-01T10:39:58;8.90;99.10
17385;DHT22;8810;48.680;8.894;2023-03-01T10:42:30;9.10;98.50
17385;DHT22;8810;48.680;8.894;2023-03-01T10:44:58;9.40;98.50
17385;DHT22;8810;48.680;8.894;2023-03-01T10:47:40;9.50;97.70
17385;DHT22;8810;48.680;8.894;2023-03-01T10:50:18;9.60;97.80
17385;DHT22;8810;48.680;8.894;2023-03-01T10:52:58;9.70;97.30
17385;DHT22;8810;48.680;8.894;2023-03-01T10:55:29;9.70;97.40
17385;DHT22;8810;48.680;8.894;2023-03-01T10:58:12;9.90;97.40
17385;DHT22;8810;48.680;8.894;2023-03-01T11:00:49;10.10;96.70
17385;DHT22;8810;48.680;8.894;2023-03-01T11:03:19;10.30;96.50
17385;DHT22;8810;48.680;8.894;2023-03-01T11:05:58;10.40;96.30
17385;DHT22;8810;48.680;8.894;2023-03-01T11:08:39;10.50;96.50
17385;DHT22;8810;48.680;8.894;2023-03-01T11:11:14;10.50;95.70
17385;DHT22;8810;48.680;8.894;2023-03-01T11:13:58;10.60;95.70
17385;DHT22;8810;48.680;8.894;2023-03-01T11:16:28;10.60;95.10
17385;DHT22;8810;48.680;8.894;2023-03-01T11:18:57;10.60;95.30
17385;DHT22;8810;48.680;8.894;2023-03-01T11:21:25;10.80;95.20
17385;DHT22;8810;48.680;8.894;2023-03-01T11:23:57;10.70;94.70
17385;DHT22;8810;48.680;8.894;2023-03-01T11:26:24;10.90;94.90
17385;DHT22;8810;48.680;8.894;2023-03-01T11:28:54;10.90;94.20
17385;DHT22;8810;48.680;8.894;2023-03-01T11:31:24;11.10;94.50
17385;DHT22;8810;48.680;8.894;2023-03-01T11:33:55;11.00;93.60
17385;DHT22;8810;48.680;8.894;2023-03-01T11:36:28;11.00;93.70
17385;DHT22;8810;48.680;8.894;2023-03-01T11:39:03;11.00;94.20
17385;DHT22;8810;48.680;8.894;2023-03-01T11:41:34;10.90;93.80
17385;DHT22;8810;48.680;8.894;2023-03-01T11:44:05;10.90;93.40
17385;DHT22;8810;48.680;8.894;2023-03-01T11:46:49;11.00;93.30
17385;DHT22;8810;48.680;8.894;2023-03-01T11:49:41;11.10;93.20
17385;DHT22;8810;48.680;8.894;2023-03-01T11:52:21;11.10;93.00
17385;DHT22;8810;48.680;8.894;2023-03-01T11:55:04;11.10;92.90
17385;DHT22;8810;48.680;8.894;2023-03-01T11:57:53;11.20;92.80
17385;DHT22;8810;48.680;8.894;2023-03-01T12:00:40;11.30;92.60
17385;DHT22;8810;48.680;8.894;2023-03-01T12:03:30;11.30;92.70
17385;DHT22;8810;48.680;8.894;2023-03-01T12:06:17;11.30;92.30
17385;DHT22;8810;48.680;8.894;2023-03-01T12:08:59;11.20;92.50
17385;DHT22;8810;48.680;8.894;2023-03-01T12:11:45;11.20;92.20
17385;DHT22;8810;48.680;8.894;2023-03-01T12:14:34;11.10;91.90
17385;DHT22;8810;48.680;8.894;2023-03-01T12:17:26;11.10;92.60
17385;DHT22;8810;48.680;8.894;2023-03-01T12:20:09;11.30;92.60
17385;DHT22;8810;48.680;8.894;2023-03-01T12:22:49;11.40;91.70
17385;DHT22;8810;48.680;8.894;2023-03-01T12:25:24;11.40;91.70
17385;DHT22;8810;48.680;8.894;2023-03-01T12:28:30;11.30;91.60
17385;DHT22;8810;48.680;8.894;2023-03-01T12:31:29;11.20;92.30
17385;DHT22;8810;48.680;8.894;2023-03-01T12:34:03;11.30;92.20
17385;DHT22;8810;48.680;8.894;2023-03-01T12:36:50;11.50;92.30
17385;DHT22;8810;48.680;8.894;2023-03-01T12:39:32;11.80;91.90
17385;DHT22;8810;48.680;8.894;2023-03-01T12:42:10;12.00;91.30
17385;DHT22;8810;48.680;8.894;2023-03-01T12:44:57;12.00;91.70
17385;DHT22;8810;48.680;8.894;2023-03-01T12:47:48;12.20;91.50
17385;DHT22;8810;48.680;8.894;2023-03-01T12:50:21;12.10;90.90
17385;DHT22;8810;48.680;8.894;2023-03-01T12:52:52;12.20;90.70
17385;DHT22;8810;48.680;8.894;2023-03-01T12:55:26;12.10;91.00
17385;DHT22;8810;48.680;8.894;2023-03-01T12:58:03;12.10;90.70
17385;DHT22;8810;48.680;8.894;2023-03-01T13:00:37;12.20;91.00
17385;DHT22;8810;48.680;8.894;2023-03-01T13:03:18;12.30;91.20
17385;DHT22;8810;48.680;8.894;2023-03-01T13:06:00;12.40;90.60
17385;DHT22;8810;48.680;8.894;2023-03-01T13:08:33;12.50;90.50
17385;DHT22;8810;48.680;8.894;2023-03-01T13:11:04;12.50;90.60
17385;DHT22;8810;48.680;8.894;2023-03-01T13:13:32;12.60;90.60
17385;DHT22;8810;48.680;8.894;2023-03-01T13:19:12;12.60;90.20
17385;DHT22;8810;48.680;8.894;2023-03-01T13:21:40;12.60;90.40
17385;DHT22;8810;48.680;8.894;2023-03-01T13:24:26;12.60;90.10
17385;DHT22;8810;48.680;8.894;2023-03-01T13:27:24;12.70;90.10
17385;DHT22;8810;48.680;8.894;2023-03-01T13:29:56;12.80;90.30
17385;DHT22;8810;48.680;8.894;2023-03-01T13:32:27;12.90;90.10
17385;DHT22;8810;48.680;8.894;2023-03-01T13:34:57;12.90;90.10
17385;DHT22;8810;48.680;8.894;2023-03-01T13:37:29;12.90;89.60
17385;DHT22;8810;48.680;8.894;2023-03-01T13:40:03;12.80;89.70
17385;DHT22;8810;48.680;8.894;2023-03-01T13:42:38;12.90;90.10
17385;DHT22;8810;48.680;8.894;2023-03-01T13:45:16;13.00;90.00
17385;DHT22;8810;48.680;8.894;2023-03-01T13:47:47;12.90;89.10
17385;DHT22;8810;48.680;8.894;2023-03-01T13:50:20;12.90;89.20
17385;DHT22;8810;48.680;8.894;2023-03-01T13:52:53;12.90;89.30
17385;DHT22;8810;48.680;8.894;2023-03-01T13:55:25;12.70;89.20
17385;DHT22;8810;48.680;8.894;2023-03-01T13:57:56;12.70;89.60
17385;DHT22;8810;48.680;8.894;2023-03-01T14:00:32;12.60;90.20
17385;DHT22;8810;48.680;8.894;2023-03-01T14:03:08;12.70;89.60
17385;DHT22;8810;48.680;8.894;2023-03-01T14:05:37;12.70;89.90
17385;DHT22;8810;48.680;8.894;2023-03-01T14:08:05;12.60;89.60
17385;DHT22;8810;48.680;8.894;2023-03-01T14:10:41;12.50;89.20
17385;DHT22;8810;48.680;8.894;2023-03-01T14:13:25;12.50;89.50
17385;DHT22;8810;48.680;8.894;2023-03-01T14:16:09;12.50;90.10
17385;DHT22;8810;48.680;8.894;2023-03-01T14:18:45;12.50;89.40
17385;DHT22;8810;48.680;8.894;2023-03-01T14:21:15;12.50;88.90
17385;DHT22;8810;48.680;8.894;2023-03-01T14:23:42;12.40;89.80
17385;DHT22;8810;48.680;8.894;2023-03-01T14:26:09;12.40;89.30
17385;DHT22;8810;48.680;8.894;2023-03-01T14:31:31;12.30;90.20
17385;DHT22;8810;48.680;8.894;2023-03-01T14:34:01;12.30;90.10
17385;DHT22;8810;48.680;8.894;2023-03-01T14:36:29;12.10;90.30
17385;DHT22;8810;48.680;8.894;2023-03-01T14:38:56;12.10;90.40
17385;DHT22;8810;48.680;8.894;2023-03-01T14:41:32;12.00;90.70
17385;DHT22;8810;48.680;8.894;2023-03-01T14:44:01;11.90;90.70
17385;DHT22;8810;48.680;8.894;2023-03-01T14:46:32;11.80;90.80
17385;DHT22;8810;48.680;8.894;2023-03-01T14:49:04;11.80;91.10
17385;DHT22;8810;48.680;8.894;2023-03-01T14:51:36;11.70;90.90
17385;DHT22;8810;48.680;8.894;2023-03-01T14:54:05;11.60;91.20
17385;DHT22;8810;48.680;8.894;2023-03-01T14:56:44;11.50;91.20
17385;DHT22;8810;48.680;8.894;2023-03-01T14:59:12;11.40;91.10
17385;DHT22;8810;48.680;8.894;2023-03-01T15:01:40;11.30;91.10
17385;DHT22;8810;48.680;8.894;2023-03-01T15:04:12;11.20;91.30
17385;DHT22;8810;48.680;8.894;2023-03-01T15:06:39;11.20;91.50
17385;DHT22;8810;48.680;8.894;2023-03-01T15:09:11;11.20;91.60
17385;DHT22;8810;48.680;8.894;2023-03-01T15:11:38;11.10;91.50
17385;DHT22;8810;48.680;8.894;2023-03-01T15:14:27;11.00;91.70
17385;DHT22;8810;48.680;8.894;2023-03-01T15:16:55;11.00;91.60
17385;DHT22;8810;48.680;8.894;2023-03-01T15:19:24;10.90;91.50
17385;DHT22;8810;48.680;8.894;2023-03-01T15:21:55;10.90;91.70
17385;DHT22;8810;48.680;8.894;2023-03-01T15:24:24;10.90;91.60
17385;DHT22;8810;48.680;8.894;2023-03-01T15:26:55;10.80;91.70
17385;DHT22;8810;48.680;8.894;2023-03-01T15:29:25;10.70;91.70
17385;DHT22;8810;48.680;8.894;2023-03-01T15:31:57;10.60;91.60
17385;DHT22;8810;48.680;8.894;2023-03-01T15:34:27;10.50;91.90
17385;DHT22;8810;48.680;8.894;2023-03-01T15:36:56;10.40;91.90
17385;DHT22;8810;48.680;8.894;2023-03-01T15:39:33;10.20;91.90
17385;DHT22;8810;48.680;8.894;2023-03-01T15:42:03;10.20;92.10
17385;DHT22;8810;48.680;8.894;2023-03-01T15:44:32;10.00;92.20
17385;DHT22;8810;48.680;8.894;2023-03-01T15:47:00;10.00;92.60
17385;DHT22;8810;48.680;8.894;2023-03-01T15:49:35;9.90;92.50
17385;DHT22;8810;48.680;8.894;2023-03-01T15:52:03;9.90;92.70
17385;DHT22;8810;48.680;8.894;2023-03-01T15:54:30;9.80;93.00
17385;DHT22;8810;48.680;8.894;2023-03-01T15:56:58;9.80;93.10
17385;DHT22;8810;48.680;8.894;2023-03-01T15:59:24;9.70;93.00
17385;DHT22;8810;48.680;8.894;2023-03-01T16:01:51;9.60;93.10
17385;DHT22;8810;48.680;8.894;2023-03-01T16:04:19;9.60;93.70
17385;DHT22;8810;48.680;8.894;2023-03-01T16:06:52;9.50;93.70
17385;DHT22;8810;48.680;8.894;2023-03-01T16:09:24;9.40;93.70
17385;DHT22;8810;48.680;8.894;2023-03-01T16:11:53;9.30;93.50
17385;DHT22;8810;48.680;8.894;2023-03-01T16:14:20;9.10;93.50
17385;DHT22;8810;48.680;8.894;2023-03-01T16:16:48;9.00;93.70
17385;DHT22;8810;48.680;8.894;2023-03-01T16:19:15;8.80;93.80